Date,TemperatureHighF,TemperatureAvgF,TemperatureLowF,DewpointHighF,DewpointAvgF,DewpointLowF,HumidityHigh,HumidityAvg,HumidityLow,PressureMaxIn,PressureMinIn,WindSpeedMaxMPH,WindSpeedAvgMPH,GustSpeedMaxMPH,PrecipitationSumIn
2013-1-1,16.1,11.2,5.4,3.0,-1.8,-5.0,78,57,41,30.47,30.30,24,7,35,0.00
2013-1-2,17.4,11.8,7.2,3.0,-0.1,-5.0,71,59,46,30.57,30.42,14,4,26,0.00
2013-1-3,32.8,16.1,4.1,-1.0,-6.6,-16.0,64,41,13,30.62,30.49,8,2,13,0.00
2013-1-4,40.6,22.3,10.3,11.0,5.5,-1.0,73,52,27,30.51,30.22,6,1,10,0.00
2013-1-5,32.5,26.8,14.7,1.0,-4.0,-10.0,50,27,18,30.42,30.23,14,5,23,0.00
2013-1-6,46.9,30.3,12.1,-3.0,-11.3,-28.0,31,18,4,30.39,30.03,15,3,15,0.00
2013-1-7,44.3,34.7,27.8,-3.0,-9.4,-27.0,25,16,4,30.03,29.79,15,5,25,0.00
2013-1-8,32.5,29.1,24.9,16.0,9.8,-12.0,59,47,14,30.34,29.79,25,5,25,0.00
2013-1-9,51.8,36.6,22.0,12.0,8.1,0.0,49,33,12,30.38,30.00,18,3,24,0.00
2013-1-10,45.6,29.6,19.4,8.0,2.9,-5.0,58,34,12,30.00,29.52,12,2,16,0.00
2013-1-11,25.1,15.8,5.4,19.0,2.2,-8.0,85,56,31,29.89,29.29,29,7,41,0.00
2013-1-12,12.4,1.8,-11.9,-2.0,-10.8,-17.0,83,58,31,30.31,29.89,19,4,24,0.00
2013-1-13,7.2,-3.7,-14.7,-3.0,-9.3,-19.0,83,77,58,30.57,30.30,9,1,11,0.00
2013-1-14,11.0,-1.7,-15.9,-2.0,-12.1,-21.0,84,63,40,30.66,30.50,13,2,26,0.00
2013-1-15,22.1,11.4,-1.1,8.0,-4.1,-17.0,60,50,44,30.58,30.52,19,7,32,0.00
2013-1-16,34.9,27.2,19.3,17.0,14.0,8.0,69,58,46,30.55,30.41,17,6,28,0.00
2013-1-17,43.8,28.8,12.9,14.0,7.5,3.0,76,45,20,30.59,30.35,19,2,23,0.00
2013-1-18,38.7,33.5,28.7,6.0,1.3,-3.0,36,26,20,30.34,30.12,24,8,38,0.00
2013-1-19,40.0,33.7,28.7,2.0,-0.5,-4.0,30,23,16,30.30,30.06,20,6,43,0.00
2013-1-20,38.5,31.5,26.0,4.0,-0.4,-5.0,37,26,18,30.27,30.13,15,4,26,0.00
2013-1-21,36.7,31.0,25.3,9.0,1.9,-7.0,37,29,17,30.25,30.14,34,7,39,0.00
2013-1-22,43.6,38.7,33.0,-7.0,-14.8,-40.0,17,10,2,30.24,30.07,29,10,45,0.00
2013-1-23,52.9,42.9,31.1,4.0,-13.2,-51.0,31,11,1,30.20,30.06,24,6,36,0.00
2013-1-24,46.5,39.6,34.8,26.0,9.9,-7.0,67,35,13,30.07,29.86,24,7,37,0.00
2013-1-25,43.6,37.5,34.3,27.0,25.2,22.0,69,62,50,30.11,30.01,16,5,33,0.00
2013-1-26,46.3,36.3,27.4,29.0,24.4,21.0,93,64,37,30.01,29.66,17,2,18,0.00
2013-1-27,44.0,34.6,23.3,29.0,22.7,13.0,94,64,29,29.75,29.62,13,3,23,0.04
2013-1-28,43.2,27.2,16.3,22.0,16.0,11.0,90,65,30,29.70,29.53,13,2,21,0.00
2013-1-29,17.2,11.2,2.4,14.0,-0.7,-5.0,85,60,41,30.18,29.67,13,4,28,0.00
2013-1-30,21.8,14.9,5.5,15.0,7.0,-3.0,80,71,59,30.19,30.06,37,11,53,0.00
2013-1-31,28.3,24.7,20.7,17.0,14.0,11.0,85,65,50,30.28,30.05,32,12,53,0.00
2013-2-1,28.8,25.8,23.8,21.0,15.4,9.0,87,65,50,30.25,30.11,35,12,53,0.00
2013-2-2,38.5,29.4,22.0,15.0,7.9,3.0,65,42,24,30.43,30.20,23,6,49,0.00
2013-2-3,42.2,31.2,20.4,5.0,-1.3,-15.0,45,27,9,30.33,29.96,22,4,33,0.00
2013-2-4,36.7,30.2,26.4,11.0,4.5,-1.0,47,34,26,30.04,29.92,23,7,40,0.00
2013-2-5,45.1,35.4,28.8,21.0,16.7,11.0,58,47,38,30.10,29.85,20,7,39,0.00
2013-2-6,38.6,32.7,23.4,24.0,18.4,15.0,86,57,40,30.04,29.78,14,4,23,0.00
2013-2-7,40.0,26.4,16.0,15.0,2.4,-9.0,72,40,12,30.20,30.03,14,4,21,0.00
2013-2-8,39.9,25.8,9.8,19.0,2.2,-5.0,66,39,16,30.14,29.82,10,2,14,0.00
2013-2-9,28.7,22.2,16.2,23.0,14.6,8.0,88,73,45,29.81,29.54,12,2,17,0.00
2013-2-10,20.5,15.4,8.0,14.0,8.1,3.0,87,74,50,30.19,29.60,9,3,18,0.00
2013-2-11,19.7,9.0,-3.8,12.0,4.0,-8.0,88,80,63,30.36,30.20,6,1,12,0.00
2013-2-12,25.9,16.3,8.6,5.0,-1.0,-9.0,62,48,30,30.37,30.29,18,8,28,0.00
2013-2-13,27.1,22.0,16.3,15.0,9.7,5.0,64,59,53,30.33,30.14,34,10,42,0.00
2013-2-14,27.2,18.8,11.3,16.0,11.2,8.0,91,73,52,30.36,30.09,31,5,34,0.00
2013-2-15,23.4,18.7,14.4,14.0,10.4,7.0,86,70,55,30.53,30.35,20,6,33,0.00
2013-2-16,36.6,28.7,21.9,13.0,9.8,5.0,63,46,33,30.48,30.12,38,11,48,0.00
2013-2-17,43.6,32.4,18.3,16.0,1.6,-9.0,77,31,13,30.11,29.59,25,8,40,0.00
2013-2-18,24.0,17.9,13.5,10.0,2.8,-10.0,75,53,25,30.24,29.68,15,6,29,0.00
2013-2-19,39.0,24.8,13.4,7.0,-4.5,-23.0,65,32,8,30.23,29.85,11,2,23,0.00
2013-2-20,32.8,20.5,13.0,16.0,9.2,4.0,89,64,31,29.84,29.67,9,1,13,0.00
2013-2-21,21.9,14.8,7.8,16.0,10.9,5.0,89,84,71,30.05,29.73,8,1,11,0.00
2013-2-22,26.0,17.5,12.9,14.0,5.1,0.0,79,59,43,30.12,30.00,24,5,42,0.00
2013-2-23,35.4,23.1,13.9,18.0,9.2,0.0,88,57,42,30.01,29.76,28,7,45,0.00
2013-2-24,17.9,14.4,1.4,15.0,11.6,-2.0,89,88,86,30.28,29.77,8,1,14,0.00
2013-2-25,30.4,19.3,0.7,9.0,5.4,-3.0,88,58,34,30.33,30.01,17,4,22,0.00
2013-2-26,24.4,19.0,10.7,16.0,10.9,7.0,88,72,47,30.26,29.88,16,2,20,0.00
2013-2-27,23.0,15.7,6.5,7.0,1.1,-8.0,78,54,35,30.49,30.27,23,5,26,0.00
2013-2-28,25.0,18.6,11.8,13.0,5.2,-1.0,73,57,42,30.52,30.41,19,6,38,0.00
2013-3-1,32.6,26.5,19.4,21.0,16.6,12.0,75,66,56,30.50,30.44,27,6,32,0.00
2013-3-2,43.3,35.2,29.0,21.0,19.4,14.0,69,54,36,30.45,30.10,32,8,35,0.00
2013-3-3,43.9,37.8,29.2,25.0,18.8,14.0,72,48,33,30.08,29.59,31,8,41,0.00
2013-3-4,36.1,23.6,13.8,27.0,15.1,0.0,91,71,52,30.24,29.61,19,6,37,0.05
2013-3-5,44.3,27.9,13.0,1.0,-4.6,-12.0,54,28,9,30.45,30.24,11,3,22,0.02
2013-3-6,51.9,35.1,17.0,15.0,5.6,-1.0,52,31,14,30.24,29.86,10,2,18,0.00
2013-3-7,50.9,39.2,27.8,19.0,12.9,5.0,66,37,15,29.91,29.82,11,3,20,0.00
2013-3-8,46.8,31.8,23.9,25.0,17.2,10.0,93,58,29,29.90,29.65,8,1,16,0.00
2013-3-9,26.5,22.7,8.4,24.0,20.2,6.0,93,90,83,30.17,29.60,1,0,4,0.00
2013-3-10,32.5,22.5,3.5,14.0,10.3,0.0,89,61,45,30.31,30.16,18,5,28,0.00
2013-3-11,35.1,28.8,23.6,23.0,16.4,9.0,90,61,48,30.23,29.94,38,10,47,0.01
2013-3-12,40.2,29.0,17.2,23.0,19.6,15.0,91,71,46,30.33,30.14,24,4,37,0.10
2013-3-13,46.7,39.2,33.9,22.0,19.7,16.0,59,47,30,30.32,30.21,25,7,38,0.00
2013-3-14,52.6,43.8,34.9,21.0,16.1,7.0,55,34,16,30.26,30.08,27,5,33,0.00
2013-3-15,55.2,46.9,33.7,29.0,19.4,16.0,62,35,24,30.09,29.78,21,5,34,0.00
2013-3-16,43.1,36.5,28.9,30.0,25.8,21.0,83,66,48,29.81,29.70,16,2,18,0.00
2013-3-17,38.8,29.6,19.0,27.0,18.5,10.0,89,65,31,29.84,29.52,18,6,38,0.01
2013-3-18,28.7,23.0,16.3,15.0,10.4,3.0,78,59,42,30.13,29.85,21,7,31,0.00
2013-3-19,35.7,27.6,13.1,11.0,-4.3,-21.0,69,30,10,30.38,30.09,41,8,53,0.00
2013-3-20,47.0,30.1,9.0,23.0,10.0,-5.0,67,46,22,30.35,29.80,32,7,47,0.00
2013-3-21,40.7,31.1,20.7,27.0,18.5,9.0,84,60,42,29.83,29.48,36,9,39,0.00
2013-3-22,33.8,23.1,15.6,20.0,11.0,1.0,91,63,27,29.97,29.74,13,4,20,0.00
2013-3-23,15.4,8.5,0.1,13.0,5.2,-3.0,89,86,80,30.45,29.94,8,2,11,0.00
2013-3-24,16.5,7.3,-3.3,7.0,1.7,-7.0,89,78,55,30.56,30.44,11,2,22,0.00
2013-3-25,28.0,15.3,6.5,12.0,3.0,-2.0,85,61,29,30.55,30.45,13,4,22,0.00
2013-3-26,43.4,29.4,3.8,20.0,12.5,-3.0,77,52,30,30.45,30.09,23,4,29,0.07
2013-3-27,45.4,34.0,20.2,27.0,21.5,17.0,92,63,34,30.12,30.02,14,4,26,0.01
2013-3-28,50.6,35.8,23.7,27.0,19.6,14.0,82,56,23,30.18,30.09,19,2,19,0.00
2013-3-29,48.0,37.9,27.0,32.0,25.4,22.0,84,63,37,30.16,30.06,20,5,28,0.00
2013-3-30,47.0,38.2,28.2,30.0,24.6,20.0,93,61,35,30.15,29.99,26,5,34,0.00
2013-3-31,52.1,39.7,23.4,28.0,16.4,4.0,94,46,15,30.14,30.00,23,5,31,0.00
2013-4-1,42.9,31.2,21.2,30.0,23.7,17.0,94,75,49,30.10,29.94,9,1,10,0.00
2013-4-2,35.0,29.8,28.2,32.0,28.1,27.0,94,93,86,30.15,30.02,6,1,8,0.01
2013-4-3,47.3,35.7,22.4,30.0,25.0,20.0,95,69,39,30.19,30.11,18,2,22,0.34
2013-4-4,54.3,44.2,33.2,27.0,21.0,14.0,71,42,22,30.17,29.95,14,4,24,0.00
2013-4-5,55.4,43.2,31.9,32.0,21.7,18.0,91,46,25,29.95,29.59,19,4,31,0.00
2013-4-6,47.9,37.6,30.7,27.0,22.5,20.0,77,56,35,29.89,29.75,13,4,20,0.02
2013-4-7,44.4,36.8,30.8,32.0,25.3,22.0,89,65,43,29.80,29.68,22,7,32,0.00
2013-4-8,51.3,36.5,22.3,30.0,23.3,18.0,93,63,29,29.74,29.38,16,3,20,0.00
2013-4-9,20.9,8.6,0.2,19.0,5.6,-3.0,91,87,84,30.36,29.63,11,3,13,0.00
2013-4-10,27.5,12.9,-6.7,17.0,6.6,-10.0,90,77,55,30.45,30.21,21,4,32,0.00
2013-4-11,39.1,31.2,21.2,26.0,21.3,11.0,83,67,56,30.20,29.89,19,7,38,0.01
2013-4-12,43.3,33.1,25.6,29.0,22.3,10.0,92,67,26,29.94,29.85,19,4,39,0.00
2013-4-13,50.8,39.4,22.9,31.0,16.5,10.0,92,43,24,29.93,29.41,30,7,47,0.00
2013-4-14,33.0,23.9,18.9,31.0,16.5,10.0,92,74,49,29.84,29.39,20,5,26,0.00
2013-4-15,27.2,21.2,17.0,25.0,17.6,10.0,91,86,57,30.05,29.80,4,0,12,0.00
2013-4-16,26.1,20.8,15.2,22.0,18.2,13.0,92,89,80,30.10,29.94,0,0,0,0.00
2013-4-17,22.0,15.6,4.5,19.0,13.1,2.0,92,89,86,30.29,30.00,0,0,0,0.00
2013-4-18,22.0,13.8,2.0,8.0,3.9,-1.0,88,66,49,30.50,30.26,30,6,39,0.00
2013-4-19,37.5,27.5,17.9,23.0,13.9,8.0,81,57,45,30.45,30.11,30,7,53,0.00
2013-4-20,43.9,34.6,27.6,26.0,22.4,19.0,81,62,37,30.11,29.93,16,5,24,0.00
2013-4-21,45.7,37.0,30.6,26.0,19.1,13.0,83,50,31,30.09,29.94,17,4,22,0.00
2013-4-22,38.3,25.2,12.3,32.0,20.4,10.0,92,83,48,30.26,29.85,8,2,24,0.14
2013-4-23,27.2,16.5,9.6,18.0,11.3,7.0,89,80,60,30.44,30.22,0,0,0,0.00
2013-4-24,38.4,27.7,12.4,16.0,9.3,6.0,76,48,28,30.41,30.32,31,5,42,0.00
2013-4-25,53.9,37.9,20.1,20.0,10.8,4.0,70,36,19,30.31,29.95,11,3,19,0.02
2013-4-26,50.0,38.5,26.5,20.0,16.5,12.0,70,45,24,30.27,30.03,12,2,15,0.00
2013-4-27,55.1,43.3,27.4,20.0,15.7,11.0,62,36,17,30.26,30.05,16,4,23,0.00
2013-4-28,60.2,50.3,37.2,28.0,19.9,14.0,49,31,21,30.05,29.76,24,5,28,0.00
2013-4-29,63.1,50.0,29.7,32.0,24.0,18.0,88,41,19,29.81,29.49,18,5,28,0.00
2013-4-30,51.8,41.3,29.4,36.0,29.0,19.0,93,65,28,29.80,29.48,9,3,15,0.02
2013-5-1,29.1,20.9,10.6,27.0,18.6,8.0,94,90,88,30.71,29.81,4,0,5,0.00
2013-5-2,33.3,21.2,3.2,24.0,14.5,0.0,91,76,56,30.95,30.65,13,2,21,0.24
2013-5-3,47.9,36.5,27.7,26.0,17.6,11.0,87,49,26,30.65,30.12,13,5,18,0.13
2013-5-4,40.2,33.5,24.0,30.0,24.8,16.0,89,72,38,30.25,30.07,10,2,14,0.00
2013-5-5,44.9,34.5,23.2,31.0,26.2,21.0,91,73,49,30.25,30.10,8,2,11,0.00
2013-5-6,51.9,40.8,31.2,34.0,30.1,27.0,86,67,43,30.14,29.90,8,2,12,0.00
2013-5-7,56.2,43.2,31.9,38.0,30.8,24.0,93,65,31,29.92,29.80,18,4,30,0.06
2013-5-8,40.6,33.9,30.4,38.0,31.9,28.0,96,92,85,30.14,29.87,4,1,11,0.47
2013-5-9,44.0,35.8,31.1,39.0,33.5,30.0,96,91,73,30.24,30.11,8,1,14,1.20
2013-5-10,47.6,38.0,28.5,39.0,32.1,27.0,95,80,53,30.36,30.20,12,2,15,0.29
2013-5-11,54.5,41.5,30.9,38.0,31.0,26.0,95,70,35,30.40,30.23,11,2,22,0.00
2013-5-12,63.8,52.0,33.8,32.0,29.4,28.0,84,44,26,30.22,30.02,13,4,22,0.00
2013-5-13,71.6,59.0,44.3,35.0,30.8,25.0,60,36,18,30.03,29.84,17,4,23,0.00
2013-5-14,67.7,56.7,41.8,39.0,32.6,27.0,68,42,23,29.84,29.73,12,3,19,0.00
2013-5-15,65.4,52.0,41.9,42.0,35.7,31.0,88,57,30,29.77,29.70,11,3,20,0.02
2013-5-16,65.0,53.9,41.8,39.0,33.4,27.0,78,49,25,29.75,29.67,17,4,21,0.00
2013-5-17,69.6,55.5,35.8,33.0,20.8,5.0,77,34,8,29.76,29.61,15,4,21,0.00
2013-5-18,58.6,47.3,37.0,34.0,25.9,17.0,81,46,24,29.71,29.59,16,4,29,0.00
2013-5-19,50.4,42.9,38.3,31.0,28.3,25.0,73,57,37,29.78,29.67,19,8,32,0.00
2013-5-20,49.9,41.9,36.1,36.0,30.4,23.0,88,65,46,29.95,29.75,17,5,24,0.01
2013-5-21,55.1,43.4,34.1,30.0,25.7,18.0,75,51,30,29.97,29.84,21,5,31,0.00
2013-5-22,61.0,47.2,31.3,42.0,31.9,24.0,94,60,28,29.94,29.79,14,4,15,0.10
2013-5-23,57.5,46.3,37.5,48.0,42.4,36.0,95,87,69,29.94,29.81,9,2,15,0.00
2013-5-24,70.9,52.6,33.7,38.0,27.5,9.0,95,49,9,29.94,29.81,11,2,19,0.01
2013-5-25,71.6,55.9,35.3,33.0,18.5,-1.0,64,31,6,29.86,29.72,10,3,21,0.00
2013-5-26,70.6,54.0,39.6,34.0,25.0,13.0,56,36,11,29.76,29.68,11,2,17,0.00
2013-5-27,66.2,54.6,41.3,29.0,19.4,12.0,58,28,14,29.73,29.56,13,4,24,0.00
2013-5-28,65.3,52.4,33.9,40.0,24.2,15.0,68,38,15,29.63,29.43,12,3,25,0.00
2013-5-29,50.8,42.8,35.5,39.0,32.5,25.0,93,68,37,29.62,29.38,28,6,38,0.20
2013-5-30,47.7,41.1,34.5,32.0,27.3,23.0,88,59,41,29.84,29.56,26,10,48,0.02
2013-5-31,52.5,44.9,37.7,23.0,17.0,9.0,52,35,20,29.95,29.70,36,13,54,0.00
2013-6-1,54.1,45.4,35.4,36.0,29.3,18.0,85,55,35,30.11,29.96,16,5,25,0.00
2013-6-2,70.2,52.5,29.2,35.0,28.2,19.0,92,48,15,30.11,29.72,14,3,22,0.00
2013-6-3,72.3,58.9,39.9,31.0,24.8,19.0,54,30,13,29.71,29.56,22,4,30,0.00
2013-6-4,57.8,48.4,33.1,49.0,35.8,17.0,94,65,27,30.01,29.69,16,3,19,0.22
2013-6-5,50.9,42.0,37.6,45.0,39.7,36.0,96,92,66,30.09,29.97,8,2,10,0.03
2013-6-6,61.5,49.2,31.5,39.0,34.1,29.0,95,61,33,30.09,29.97,13,3,15,0.01
2013-6-7,68.6,53.1,36.7,47.0,36.1,30.0,88,57,26,30.01,29.68,11,2,20,0.01
2013-6-8,64.9,55.6,41.8,47.0,39.7,33.0,91,57,34,29.82,29.57,21,4,30,0.02
2013-6-9,75.7,60.7,38.8,39.0,32.0,26.0,90,39,17,29.90,29.77,15,4,24,0.00
2013-6-10,81.4,65.7,49.5,41.0,30.7,17.0,53,31,11,29.76,29.60,15,3,22,0.00
2013-6-11,78.8,66.2,47.0,35.0,21.6,-4.0,49,23,4,29.65,29.53,19,5,29,0.00
2013-6-12,76.0,64.2,45.1,40.0,27.0,18.0,42,25,17,29.82,29.64,14,4,31,0.00
2013-6-13,78.9,63.3,45.6,46.0,34.1,25.0,68,39,14,29.80,29.62,17,3,29,0.00
2013-6-14,73.0,58.9,41.8,40.0,33.9,24.0,72,43,18,29.75,29.66,14,2,16,0.00
2013-6-15,64.6,53.7,34.9,46.0,41.5,32.0,88,65,50,29.92,29.74,13,3,16,0.00
2013-6-16,66.8,53.5,37.5,43.0,36.1,31.0,81,55,29,30.01,29.90,13,3,37,0.00
2013-6-17,69.3,55.7,41.2,47.0,39.0,29.0,84,56,22,29.98,29.85,17,3,17,0.00
2013-6-18,68.4,56.1,41.2,47.0,40.3,35.0,84,59,33,29.92,29.69,10,2,14,0.00
2013-6-19,78.0,61.6,38.8,43.0,25.6,4.0,90,38,6,29.77,29.52,13,3,23,0.00
2013-6-20,70.7,58.4,40.0,33.0,24.8,15.0,51,29,18,29.71,29.57,13,3,21,0.00
2013-6-21,77.1,60.9,40.3,31.0,25.0,15.0,55,29,11,29.71,29.59,10,2,16,0.00
2013-6-22,71.0,57.1,38.1,44.0,30.6,20.0,67,40,16,29.72,29.56,12,3,19,0.00
2013-6-23,69.7,56.9,39.7,46.0,33.6,22.0,58,42,27,29.79,29.64,9,3,19,0.01
2013-6-24,72.6,61.4,39.5,39.0,25.5,16.0,82,32,12,29.72,29.57,10,3,19,0.00
2013-6-25,73.2,61.0,42.0,34.0,29.1,22.0,51,31,22,29.82,29.61,22,5,27,0.00
2013-6-26,81.2,65.1,43.6,38.0,32.9,30.0,64,34,16,29.88,29.78,16,3,19,0.00
2013-6-27,81.2,67.8,52.7,37.0,34.3,24.0,53,32,13,29.95,29.84,18,3,21,0.00
2013-6-28,80.7,65.3,49.9,55.0,42.3,29.0,94,49,16,29.97,29.82,15,3,19,0.39
2013-6-29,71.5,57.2,45.7,56.0,48.8,44.0,96,76,44,29.99,29.89,6,1,15,0.06
2013-6-30,69.3,55.6,48.4,53.0,48.7,45.0,91,79,46,30.03,29.89,11,1,14,0.12
2013-7-1,64.0,53.3,41.5,52.0,45.8,39.0,93,78,44,30.11,30.02,7,1,12,0.15
2013-7-2,65.7,55.3,41.7,55.0,45.9,38.0,95,73,41,30.09,29.95,12,2,14,0.07
2013-7-3,72.3,56.9,40.6,51.0,43.4,39.0,93,66,33,29.94,29.73,10,3,23,0.26
2013-7-4,73.1,59.5,50.4,53.0,45.2,40.0,83,62,33,29.81,29.71,11,2,17,0.04
2013-7-5,72.6,60.3,47.5,56.0,47.2,43.0,93,65,37,29.72,29.63,11,3,21,0.11
2013-7-6,73.3,60.4,49.8,48.0,46.1,42.0,92,62,34,29.75,29.64,20,3,29,0.19
2013-7-7,73.5,63.9,50.9,50.0,45.5,39.0,82,54,30,29.80,29.72,13,3,23,0.00
2013-7-8,76.7,63.0,50.4,48.0,43.5,36.0,86,53,24,29.86,29.76,11,4,26,0.04
2013-7-9,79.5,65.8,49.5,43.0,37.7,27.0,71,40,15,29.93,29.84,12,2,22,0.00
2013-7-10,76.9,63.0,46.1,52.0,43.9,38.0,75,52,33,29.93,29.77,11,2,13,0.00
2013-7-11,80.2,64.9,51.2,51.0,44.6,35.0,82,52,22,29.85,29.59,7,2,16,0.02
2013-7-12,75.7,63.8,56.2,50.0,46.8,45.0,79,55,35,29.67,29.62,10,3,17,0.00
2013-7-13,74.0,68.7,55.5,53.0,51.0,49.0,84,55,44,29.88,29.85,8,3,14,0.00
2013-7-14,62.4,58.4,52.6,56.0,54.0,50.0,94,85,73,30.00,29.96,6,1,8,0.30
2013-7-15,65.0,58.3,50.0,58.0,53.7,49.0,96,85,71,29.95,29.87,16,2,17,0.05
2013-7-16,67.9,56.6,43.9,51.0,46.3,43.0,96,72,44,30.01,29.91,11,2,14,0.01
2013-7-17,74.4,60.6,44.5,53.0,48.1,42.0,89,66,41,30.01,29.88,14,3,14,0.00
2013-7-18,75.5,62.6,52.2,53.0,49.2,46.0,91,65,39,29.89,29.75,12,3,18,0.29
2013-7-19,68.2,59.2,51.1,55.0,50.6,47.0,91,75,50,29.94,29.84,12,3,15,0.01
2013-7-20,75.2,60.3,46.2,53.0,46.1,41.0,89,63,29,29.86,29.70,12,3,15,0.00
2013-7-21,77.5,64.1,44.3,52.0,37.1,23.0,90,42,14,29.74,29.64,13,3,20,0.00
2013-7-22,80.5,64.3,47.6,46.0,30.3,13.0,60,33,8,29.79,29.69,17,3,26,0.00
2013-7-23,78.8,63.1,49.0,53.0,35.0,17.0,87,40,11,29.87,29.74,13,3,15,0.00
2013-7-24,68.6,57.9,50.0,56.0,49.8,47.0,89,76,56,29.93,29.78,10,2,13,0.47
2013-7-25,61.2,53.7,47.7,52.0,48.7,45.0,94,83,59,30.09,29.82,11,2,19,0.31
2013-7-26,72.1,57.6,43.7,50.0,44.6,40.0,92,65,32,30.13,29.97,11,2,18,0.01
2013-7-27,73.9,57.9,48.0,54.0,45.1,38.0,94,66,30,29.97,29.73,10,2,17,0.29
2013-7-28,66.9,55.1,48.3,54.0,50.1,46.0,95,84,49,29.79,29.70,8,2,10,0.06
2013-7-29,65.7,57.2,49.2,49.0,45.5,44.0,89,66,50,29.97,29.75,14,4,21,0.00
2013-7-30,73.1,59.3,44.0,47.0,43.1,40.0,92,58,31,30.05,29.96,16,4,22,0.00
2013-7-31,74.6,61.6,46.7,48.0,42.6,35.0,84,54,24,30.08,29.91,11,2,13,0.00
2013-8-1,74.9,61.6,48.0,49.0,44.1,36.0,87,56,26,29.96,29.74,10,3,16,0.00
2013-8-2,77.0,65.8,54.9,47.0,42.9,34.0,67,45,22,29.74,29.69,20,5,27,0.00
2013-8-3,73.3,60.4,50.4,56.0,45.7,41.0,92,62,31,29.99,29.75,10,3,17,0.07
2013-8-4,74.3,62.4,49.3,49.0,43.5,33.0,86,53,24,29.95,29.86,13,3,18,0.00
2013-8-5,71.9,64.0,53.3,51.0,43.9,39.0,86,50,31,29.81,29.77,9,5,19,0.09
2013-8-7,66.1,57.3,47.1,49.0,43.1,37.0,85,61,37,29.87,29.80,8,2,10,0.00
2013-8-8,63.9,51.1,39.7,51.0,43.3,35.0,92,75,48,30.05,29.84,10,2,14,0.22
2013-8-9,62.2,49.1,41.1,48.0,43.4,39.0,94,82,49,30.12,30.02,9,2,14,0.07
2013-8-10,73.1,57.2,41.2,46.0,39.6,30.0,91,57,20,30.13,29.97,13,3,19,0.00
2013-8-11,65.9,56.7,46.4,48.0,42.1,37.0,85,60,40,29.99,29.89,8,2,13,0.03
2013-8-12,66.6,53.7,42.8,47.0,43.4,39.0,94,70,42,30.09,29.96,11,2,17,0.78
2013-8-13,60.7,52.5,44.9,50.0,45.3,41.0,94,77,55,30.11,29.97,6,2,16,0.14
2013-8-14,69.0,54.8,41.9,47.0,39.7,32.0,89,61,27,30.08,29.93,14,3,31,0.00
2013-8-15,72.9,59.4,45.7,45.0,36.0,30.0,75,45,21,30.01,29.88,12,3,22,0.00
2013-8-16,75.8,59.8,42.2,44.0,35.8,25.0,74,46,16,30.00,29.93,12,2,17,0.00
2013-8-17,79.7,63.6,47.0,41.0,33.8,25.0,66,37,15,29.99,29.79,8,3,17,0.00
2013-8-18,78.0,64.7,54.2,45.0,38.7,32.0,67,41,20,29.87,29.76,13,4,19,0.00
2013-8-19,78.3,65.2,52.7,45.0,40.3,34.0,65,43,23,29.87,29.77,7,2,14,0.00
2013-8-20,78.4,65.8,52.4,43.0,37.8,32.0,59,38,19,29.81,29.72,7,2,17,0.00
2013-8-21,74.7,63.0,52.4,52.0,44.1,39.0,84,52,30,29.86,29.75,11,2,17,0.00
2013-8-22,69.0,56.5,46.4,55.0,48.5,43.0,93,76,45,29.98,29.86,9,1,16,0.16
2013-8-23,72.2,56.5,48.4,57.0,50.3,44.0,94,82,37,30.00,29.81,8,2,15,0.79
2013-8-24,69.6,56.4,45.5,55.0,48.2,43.0,92,76,48,29.95,29.84,10,2,16,0.14
2013-8-25,71.1,57.3,47.0,57.0,48.8,44.0,93,76,40,29.97,29.90,11,2,16,0.11
2013-8-26,73.5,59.9,49.9,57.0,51.0,48.0,94,75,44,29.96,29.89,11,3,19,0.89
2013-8-27,73.8,64.5,57.7,57.0,52.6,51.0,81,67,45,29.89,29.83,6,1,12,0.01
2013-8-28,76.0,61.4,48.7,57.0,49.5,44.0,88,67,41,29.91,29.81,10,2,16,0.02
2013-8-29,76.0,62.1,49.7,53.0,46.2,43.0,81,59,34,29.97,29.89,10,3,18,0.02
2013-8-30,76.1,62.9,53.7,53.0,47.2,44.0,77,58,34,29.97,29.85,8,2,15,0.00
2013-9-1,67.2,59.9,51.0,57.0,53.1,45.0,89,79,65,29.97,29.90,7,2,10,0.00
2013-9-2,74.6,61.5,48.1,55.0,47.4,43.0,84,63,36,29.95,29.81,8,2,12,0.00
2013-9-3,77.1,65.9,54.5,50.0,46.7,38.0,76,52,24,29.85,29.77,13,2,17,0.00
2013-9-4,76.1,62.7,52.6,53.0,47.8,44.0,78,60,33,29.95,29.83,10,1,15,0.00
2013-9-5,76.2,59.7,50.2,53.0,46.4,42.0,75,63,32,29.98,29.90,6,1,10,0.00
2013-9-6,76.6,61.8,52.9,53.0,46.0,41.0,79,58,30,29.92,29.83,8,2,20,0.08
2013-9-7,75.4,61.3,48.8,51.0,45.6,41.0,85,60,30,29.91,29.80,11,2,16,0.00
2013-9-8,72.6,57.9,47.2,56.0,46.8,41.0,88,69,35,29.82,29.66,9,2,15,0.16
2013-9-9,68.2,55.9,48.0,54.0,48.4,44.0,95,77,52,29.81,29.67,12,2,12,0.96
2013-9-10,54.9,51.5,50.0,53.0,50.3,49.0,97,96,93,30.03,29.78,5,1,7,0.75
2013-9-11,54.2,51.9,50.4,53.0,51.1,50.0,97,97,94,30.03,29.98,5,1,8,1.64
2013-9-17,51.4,50.3,48.9,44.0,42.4,41.0,76,74,73,29.71,29.68,4,2,8,0.00
2013-9-18,66.7,52.3,42.6,45.0,41.4,37.0,87,69,35,29.79,29.64,14,4,27,0.07
2013-9-19,52.6,46.0,35.9,44.0,39.9,34.0,93,79,68,30.08,29.76,10,3,13,0.00
2013-9-20,65.6,46.6,30.5,43.0,32.5,17.0,95,66,17,30.13,29.97,17,3,21,0.01
2013-9-24,55.9,49.5,43.1,25.0,17.4,10.0,49,31,16,29.78,29.71,11,2,17,0.00
2013-9-25,70.7,57.1,42.4,29.0,19.9,11.0,58,26,10,29.71,29.28,22,4,23,0.00
2013-9-26,56.3,41.4,35.5,43.0,17.8,-99.9,94,57,34,29.61,29.33,10,-133,11,0.00
2013-9-27,42.4,31.8,31.0,41.0,16.3,-99.9,96,76,68,29.98,29.60,30,-122,37,0.34
2013-9-28,51.3,34.3,30.2,31.0,3.0,-99.9,73,42,39,30.21,29.93,29,-161,33,0.01
2013-9-29,57.8,48.1,38.2,25.0,18.9,15.0,56,32,23,30.12,29.73,25,6,43,0.00
2013-9-30,67.8,59.5,45.1,32.0,27.0,22.0,44,29,22,29.71,29.61,20,7,31,0.00
2013-10-1,62.7,49.7,36.8,42.0,32.3,23.0,80,53,33,29.86,29.71,13,2,14,0.00
2013-10-2,64.2,47.8,31.9,36.0,29.9,21.0,83,56,20,29.90,29.78,12,2,17,0.00
2013-10-3,58.0,43.5,31.4,40.0,34.1,24.0,95,73,30,29.78,29.57,12,2,13,0.07
2013-10-4,39.7,29.3,22.8,38.0,24.2,14.0,95,82,66,30.20,29.61,17,5,34,0.11
2013-10-5,38.2,30.2,22.9,16.0,13.9,10.0,71,52,37,30.43,30.18,25,11,39,0.00
2013-10-6,55.2,43.8,33.0,29.0,24.0,14.0,56,46,35,30.40,30.19,14,7,30,0.03
2013-10-7,66.5,52.2,40.6,30.0,19.4,2.0,52,31,9,30.18,29.79,14,3,18,0.00
2013-10-8,63.6,52.1,37.7,33.0,22.4,16.0,65,34,17,29.79,29.55,18,4,22,0.00
2013-10-9,54.3,42.8,32.0,38.0,31.4,25.0,93,66,41,29.87,29.65,9,2,15,0.00
2013-10-10,51.2,38.8,31.7,41.0,31.4,24.0,95,76,49,29.85,29.45,34,5,50,0.00
2013-10-11,42.9,37.1,30.2,31.0,27.1,25.0,89,68,55,30.04,29.46,30,9,51,0.00
2013-10-12,46.5,34.9,25.5,35.0,27.9,19.0,94,78,36,30.18,30.04,15,2,18,0.00
2013-10-13,55.3,38.6,25.5,39.0,30.6,23.0,94,75,41,30.19,29.89,8,1,14,0.01
2013-10-14,38.2,33.9,29.1,32.0,27.7,24.0,94,79,63,30.14,29.75,20,4,38,0.01
2013-10-15,31.6,26.7,24.0,26.0,23.7,22.0,93,88,72,30.28,30.14,5,1,9,0.00
2013-10-16,38.8,31.5,23.6,23.0,19.3,17.0,93,63,43,30.26,30.12,21,6,38,0.00
2013-10-17,41.0,33.2,26.6,28.0,20.0,14.0,94,61,37,30.14,29.98,10,3,23,0.01
2013-10-18,32.5,27.8,21.2,26.0,17.7,12.0,94,69,43,30.23,30.00,26,4,39,0.00
2013-10-19,45.4,37.3,29.6,20.0,17.0,14.0,54,44,34,30.23,29.93,27,8,38,0.00
2013-10-20,40.4,34.5,22.5,30.0,22.5,18.0,93,65,41,30.09,29.87,11,3,24,0.00
2013-10-21,43.0,33.0,20.8,23.0,20.6,19.0,93,63,42,30.32,30.08,21,5,25,0.01
2013-10-22,52.3,43.2,34.0,26.0,23.3,20.0,58,46,32,30.27,30.05,22,4,27,0.00
2013-10-23,56.5,43.5,28.0,30.0,23.6,17.0,83,49,22,30.14,30.00,12,3,18,0.00
2013-10-24,56.7,39.6,26.8,27.0,23.1,9.0,84,58,15,30.21,30.13,9,2,14,0.00
2013-10-25,57.2,40.2,25.8,33.0,24.5,19.0,84,58,24,30.25,30.08,10,2,17,0.00
2013-10-26,51.2,37.5,24.9,32.0,25.7,19.0,89,65,38,30.31,30.20,12,2,20,0.00
2013-10-27,53.1,45.7,37.0,23.0,20.1,16.0,52,37,23,30.19,29.79,17,6,27,0.00
2013-10-28,31.6,27.5,24.3,29.0,25.6,21.0,94,92,80,30.01,29.84,6,1,8,0.00
2013-10-29,49.7,30.4,19.0,32.0,23.6,10.0,94,80,20,30.07,29.88,15,2,28,0.00
2013-10-30,37.6,31.2,26.7,30.0,21.8,16.0,95,70,50,29.90,29.79,18,5,29,0.08
2013-10-31,32.5,29.2,25.4,23.0,18.0,13.0,76,63,50,30.04,29.82,34,11,55,0.00
2013-11-1,35.6,32.0,29.8,25.0,20.6,17.0,81,63,50,30.29,30.00,14,5,28,0.00
2013-11-2,53.6,43.0,31.7,18.0,7.2,-7.0,55,26,9,30.28,29.70,23,6,29,0.00
2013-11-3,49.9,41.6,23.6,27.0,12.0,-6.0,82,35,10,29.69,29.43,17,6,29,0.00
2013-11-4,30.3,24.5,16.6,20.0,13.7,6.0,86,64,42,30.02,29.66,14,3,22,0.00
2013-11-5,25.8,21.0,16.7,16.0,7.7,1.0,85,58,42,30.34,29.99,32,6,39,0.00
2013-11-6,32.9,27.2,17.9,18.0,11.6,-1.0,62,52,41,30.53,30.30,29,10,45,0.00
2013-11-7,49.9,37.9,27.2,20.0,17.7,14.0,65,46,28,30.53,30.01,15,4,19,0.00
2013-11-8,50.7,42.4,29.6,18.0,14.7,8.0,58,34,23,30.00,29.64,36,7,54,0.00
2013-11-9,52.0,41.0,29.3,19.0,16.7,14.0,59,39,27,30.19,29.95,23,5,30,0.00
2013-11-10,52.2,42.6,31.0,20.0,16.8,15.0,57,37,25,30.20,30.12,12,3,26,0.00
2013-11-11,51.6,38.8,24.6,24.0,18.8,13.0,93,50,22,30.50,30.16,23,4,28,0.00
2013-11-12,49.6,36.0,22.3,26.0,20.1,4.0,93,57,19,30.60,30.44,11,2,18,0.00
2013-11-13,50.6,44.4,38.0,17.0,9.8,2.0,40,25,17,30.43,29.94,18,6,27,0.00
2013-11-14,45.3,37.7,33.3,26.0,15.7,2.0,72,43,24,29.96,29.72,17,5,23,0.00
2013-11-15,46.8,36.0,29.2,28.0,14.0,-4.0,88,46,17,29.71,29.44,17,5,27,0.00
2013-11-16,38.4,30.9,26.3,26.0,19.5,12.0,91,64,42,29.56,29.29,23,8,39,0.00
2013-11-17,35.2,29.0,20.7,21.0,17.9,15.0,89,65,44,30.19,29.52,38,12,58,0.00
2013-11-18,47.4,36.2,26.9,20.0,13.5,8.0,62,41,23,30.25,30.06,27,7,42,0.00
2013-11-19,44.6,35.5,24.2,28.0,18.7,9.0,75,52,34,30.05,29.77,20,4,34,0.00
2013-11-20,42.0,34.8,25.8,27.0,24.1,21.0,89,66,46,29.92,29.75,14,2,16,0.01
2013-11-21,25.9,11.5,2.4,23.0,8.2,-1.0,90,86,81,30.79,29.92,6,2,8,0.00
2013-11-22,31.6,21.4,11.9,20.0,12.7,2.0,88,72,30,30.88,30.72,5,0,8,0.00
2013-11-23,28.9,21.5,12.1,20.0,16.7,10.0,91,82,49,30.72,30.44,7,1,12,0.00
2013-11-24,40.1,31.3,21.1,30.0,26.1,18.0,91,81,65,30.43,30.02,8,1,13,0.13
2013-11-25,33.1,25.1,15.8,20.0,16.6,11.0,89,71,48,30.43,30.06,6,1,10,0.00
2013-11-26,37.5,29.5,20.1,17.0,15.5,14.0,81,57,42,30.54,30.36,18,3,24,0.00
2013-11-27,46.2,36.5,27.2,16.0,13.6,9.0,61,40,24,30.35,30.11,20,6,24,0.03
2013-11-28,46.0,31.7,20.5,23.0,15.7,13.0,74,54,30,30.22,30.12,5,1,11,0.00
2013-11-29,42.4,36.0,27.3,17.0,15.2,14.0,60,43,33,30.21,30.12,20,7,33,0.00
2013-11-30,40.0,34.4,28.3,16.0,11.2,7.0,51,39,26,30.20,30.13,18,6,29,0.00
2013-12-1,37.6,33.1,29.0,25.0,17.2,11.0,74,53,41,30.20,29.78,36,11,59,0.00
2013-12-2,39.0,34.9,31.2,25.0,22.2,18.0,78,61,46,29.85,29.58,40,18,59,0.00
2013-12-3,35.1,24.1,2.7,29.0,18.1,-1.0,89,79,51,29.63,29.41,15,3,26,0.00
2013-12-4,3.0,-1.0,-8.8,-2.0,-5.7,-13.0,87,81,68,30.38,29.64,10,2,11,0.00
2013-12-5,13.1,-0.9,-19.7,2.0,-8.1,-25.0,84,72,50,30.42,30.23,8,2,16,0.00
2013-12-6,3.5,-2.4,-6.8,-4.0,-7.2,-11.0,84,80,71,30.71,30.65,3,1,7,0.00
2013-12-7,18.8,10.8,2.7,8.0,2.9,-4.0,85,71,45,30.65,29.93,9,2,16,0.00
2013-12-8,13.0,9.0,2.8,8.0,-0.1,-8.0,85,67,50,30.19,29.82,33,4,38,0.00
2013-12-9,10.6,2.9,-3.1,-2.0,-10.7,-16.0,68,54,41,30.65,30.18,39,13,51,0.00
2013-12-10,26.4,20.5,11.1,11.0,5.7,-2.0,66,53,46,30.55,30.28,40,18,63,0.00
2013-12-11,33.0,25.3,16.6,7.0,0.6,-13.0,64,37,15,30.49,30.32,24,7,42,0.00
2013-12-12,46.9,38.3,31.3,5.0,-4.0,-15.0,27,17,10,30.47,29.89,21,8,34,0.00
2013-12-13,35.9,29.9,21.1,13.0,8.2,4.0,59,41,28,30.15,29.75,24,8,34,0.00
2013-12-14,26.4,22.6,18.9,12.0,8.9,6.0,63,56,47,30.44,30.16,32,9,40,0.00
2013-12-15,36.7,31.7,25.8,16.0,13.8,9.0,62,49,33,30.43,30.16,43,12,51,0.00
2013-12-16,42.2,38.1,35.5,18.0,11.6,3.0,50,35,23,30.22,30.06,44,17,55,0.00
2013-12-17,44.1,38.3,32.4,13.0,10.5,8.0,40,32,25,30.35,30.12,14,6,28,0.00
2013-12-18,48.9,41.5,34.0,13.0,8.2,6.0,40,26,18,30.11,29.65,24,5,37,0.00
2013-12-19,46.8,32.6,15.6,21.0,16.0,11.0,91,56,23,29.65,29.46,17,3,21,0.00
2013-12-20,32.2,24.6,13.7,22.0,16.3,9.0,92,71,57,29.75,29.64,14,4,18,0.00
2013-12-21,25.1,21.0,14.3,12.0,7.8,4.0,84,58,44,29.99,29.57,11,4,22,0.00
2013-12-22,22.1,18.3,14.4,14.0,8.5,5.0,84,66,51,30.32,29.99,36,9,50,0.00
2013-12-23,31.5,24.5,12.3,20.0,15.4,9.0,88,69,54,30.43,30.30,28,7,43,0.00
2013-12-24,36.5,25.7,16.2,25.0,15.8,4.0,86,67,51,30.36,30.09,36,10,51,0.00
2013-12-25,29.6,23.5,17.0,4.0,1.1,-2.0,58,38,30,30.57,30.34,22,9,38,0.00
2013-12-26,37.3,30.6,27.0,15.0,6.1,-6.0,53,37,22,30.47,30.35,21,8,35,0.00
2013-12-27,45.5,36.4,30.3,20.0,17.6,15.0,59,48,33,30.36,30.07,16,5,22,0.00
2013-12-28,40.2,31.2,14.1,20.0,17.3,11.0,88,59,40,30.09,29.84,15,4,28,0.00
2013-12-29,25.3,19.6,8.9,13.0,6.2,-4.0,88,60,28,30.27,30.09,27,7,51,0.00
2013-12-30,29.6,25.3,20.6,14.0,10.8,5.0,75,55,42,30.36,30.15,31,9,39,0.00
2013-12-31,36.4,32.2,28.5,21.0,17.2,10.0,69,54,42,30.25,29.92,26,9,61,0.00
2014-1-1,31.1,23.9,20.1,24.0,15.5,10.0,88,71,59,30.32,29.91,25,6,47,0.00
2014-1-2,38.7,30.6,22.0,17.0,6.3,-7.0,59,37,18,30.42,30.06,20,6,40,0.00